sensor_id;sensor_type;location;lat;lon;timestamp;P1;durP1;ratioP1;P2;durP2;ratioP2
17441;SDS011;8838;50.144;8.176;2023-07-13T00:01:03;2.25;;;1.50;;
17441;SDS011;8838;50.144;8.176;2023-07-13T00:03:31;2.90;;;1.60;;
17441;SDS011;8838;50.144;8.176;2023-07-13T00:06:01;3.67;;;1.30;;
17441;SDS011;8838;50.144;8.176;2023-07-13T00:08:30;2.17;;;1.45;;
17441;SDS011;8838;50.144;8.176;2023-07-13T00:10:58;4.32;;;1.50;;
17441;SDS011;8838;50.144;8.176;2023-07-13T00:13:25;3.25;;;1.27;;
17441;SDS011;8838;50.144;8.176;2023-07-13T00:15:52;2.88;;;1.08;;
17441;SDS011;8838;50.144;8.176;2023-07-13T00:18:19;4.65;;;1.40;;
17441;SDS011;8838;50.144;8.176;2023-07-13T00:20:46;3.63;;;1.63;;
17441;SDS011;8838;50.144;8.176;2023-07-13T00:23:15;2.03;;;1.38;;
17441;SDS011;8838;50.144;8.176;2023-07-13T00:25:42;6.25;;;1.58;;
17441;SDS011;8838;50.144;8.176;2023-07-13T00:28:09;3.33;;;1.45;;
17441;SDS011;8838;50.144;8.176;2023-07-13T00:30:36;2.63;;;1.23;;
17441;SDS011;8838;50.144;8.176;2023-07-13T00:33:02;4.03;;;1.50;;
17441;SDS011;8838;50.144;8.176;2023-07-13T00:35:30;2.40;;;1.17;;
17441;SDS011;8838;50.144;8.176;2023-07-13T00:37:58;2.70;;;1.42;;
17441;SDS011;8838;50.144;8.176;2023-07-13T00:40:26;5.35;;;1.35;;
17441;SDS011;8838;50.144;8.176;2023-07-13T00:42:53;2.92;;;1.30;;
17441;SDS011;8838;50.144;8.176;2023-07-13T00:48:27;2.58;;;1.50;;
17441;SDS011;8838;50.144;8.176;2023-07-13T00:50:58;5.22;;;1.30;;
17441;SDS011;8838;50.144;8.176;2023-07-13T00:53:27;4.35;;;1.58;;
17441;SDS011;8838;50.144;8.176;2023-07-13T00:55:57;3.53;;;1.45;;
17441;SDS011;8838;50.144;8.176;2023-07-13T00:58:24;2.70;;;1.40;;
17441;SDS011;8838;50.144;8.176;2023-07-13T01:00:52;5.03;;;1.30;;
17441;SDS011;8838;50.144;8.176;2023-07-13T01:03:19;3.20;;;1.30;;
17441;SDS011;8838;50.144;8.176;2023-07-13T01:05:46;2.47;;;1.17;;
17441;SDS011;8838;50.144;8.176;2023-07-13T01:08:15;2.45;;;1.15;;
17441;SDS011;8838;50.144;8.176;2023-07-13T01:10:50;4.88;;;1.65;;
17441;SDS011;8838;50.144;8.176;2023-07-13T01:13:19;3.03;;;1.48;;
17441;SDS011;8838;50.144;8.176;2023-07-13T01:15:46;3.85;;;1.27;;
17441;SDS011;8838;50.144;8.176;2023-07-13T01:18:16;4.10;;;1.40;;
17441;SDS011;8838;50.144;8.176;2023-07-13T01:20:53;5.90;;;1.23;;
17441;SDS011;8838;50.144;8.176;2023-07-13T01:23:21;3.95;;;1.27;;
17441;SDS011;8838;50.144;8.176;2023-07-13T01:25:49;1.75;;;1.02;;
17441;SDS011;8838;50.144;8.176;2023-07-13T01:28:17;3.00;;;1.30;;
17441;SDS011;8838;50.144;8.176;2023-07-13T01:30:45;3.88;;;1.50;;
17441;SDS011;8838;50.144;8.176;2023-07-13T01:33:13;3.08;;;1.30;;
17441;SDS011;8838;50.144;8.176;2023-07-13T01:35:40;5.50;;;1.50;;
17441;SDS011;8838;50.144;8.176;2023-07-13T01:38:13;2.75;;;1.20;;
17441;SDS011;8838;50.144;8.176;2023-07-13T01:40:41;2.95;;;1.40;;
17441;SDS011;8838;50.144;8.176;2023-07-13T01:43:08;3.03;;;1.40;;
17441;SDS011;8838;50.144;8.176;2023-07-13T01:45:35;3.55;;;1.40;;
17441;SDS011;8838;50.144;8.176;2023-07-13T01:48:02;4.20;;;1.10;;
17441;SDS011;8838;50.144;8.176;2023-07-13T01:50:31;3.90;;;1.20;;
17441;SDS011;8838;50.144;8.176;2023-07-13T01:52:58;4.38;;;1.38;;
17441;SDS011;8838;50.144;8.176;2023-07-13T01:55:27;8.32;;;1.75;;
17441;SDS011;8838;50.144;8.176;2023-07-13T01:57:54;3.65;;;1.38;;
17441;SDS011;8838;50.144;8.176;2023-07-13T02:00:21;1.77;;;1.10;;
17441;SDS011;8838;50.144;8.176;2023-07-13T02:02:48;1.77;;;1.10;;
17441;SDS011;8838;50.144;8.176;2023-07-13T02:05:15;4.00;;;1.42;;
17441;SDS011;8838;50.144;8.176;2023-07-13T02:07:42;4.88;;;1.45;;
17441;SDS011;8838;50.144;8.176;2023-07-13T02:10:09;2.80;;;1.35;;
17441;SDS011;8838;50.144;8.176;2023-07-13T02:12:38;6.40;;;1.58;;
17441;SDS011;8838;50.144;8.176;2023-07-13T02:15:08;3.10;;;1.42;;
17441;SDS011;8838;50.144;8.176;2023-07-13T02:17:36;2.63;;;1.20;;
17441;SDS011;8838;50.144;8.176;2023-07-13T02:20:03;4.93;;;1.35;;
17441;SDS011;8838;50.144;8.176;2023-07-13T02:22:32;2.80;;;1.40;;
17441;SDS011;8838;50.144;8.176;2023-07-13T02:25:01;2.72;;;1.20;;
17441;SDS011;8838;50.144;8.176;2023-07-13T02:27:28;4.22;;;1.38;;
17441;SDS011;8838;50.144;8.176;2023-07-13T02:29:56;4.57;;;1.40;;
17441;SDS011;8838;50.144;8.176;2023-07-13T02:32:23;1.30;;;1.20;;
17441;SDS011;8838;50.144;8.176;2023-07-13T02:34:50;3.83;;;1.65;;
17441;SDS011;8838;50.144;8.176;2023-07-13T02:37:18;2.60;;;1.38;;
17441;SDS011;8838;50.144;8.176;2023-07-13T02:39:45;2.92;;;1.65;;
17441;SDS011;8838;50.144;8.176;2023-07-13T02:42:13;5.88;;;1.70;;
17441;SDS011;8838;50.144;8.176;2023-07-13T02:44:39;3.63;;;1.50;;
17441;SDS011;8838;50.144;8.176;2023-07-13T02:47:08;3.22;;;1.50;;
17441;SDS011;8838;50.144;8.176;2023-07-13T02:49:34;2.88;;;1.70;;
17441;SDS011;8838;50.144;8.176;2023-07-13T02:52:01;3.55;;;1.55;;
17441;SDS011;8838;50.144;8.176;2023-07-13T02:54:28;2.60;;;1.30;;
17441;SDS011;8838;50.144;8.176;2023-07-13T02:56:55;2.90;;;1.30;;
17441;SDS011;8838;50.144;8.176;2023-07-13T02:59:22;4.22;;;1.52;;
17441;SDS011;8838;50.144;8.176;2023-07-13T03:01:49;3.08;;;1.48;;
17441;SDS011;8838;50.144;8.176;2023-07-13T03:04:17;2.72;;;1.83;;
17441;SDS011;8838;50.144;8.176;2023-07-13T03:06:44;3.60;;;1.48;;
17441;SDS011;8838;50.144;8.176;2023-07-13T03:09:11;3.70;;;1.77;;
17441;SDS011;8838;50.144;8.176;2023-07-13T03:11:38;8.02;;;1.55;;
17441;SDS011;8838;50.144;8.176;2023-07-13T03:14:06;9.25;;;1.98;;
17441;SDS011;8838;50.144;8.176;2023-07-13T03:16:33;4.22;;;1.42;;
17441;SDS011;8838;50.144;8.176;2023-07-13T03:19:00;4.10;;;1.25;;
17441;SDS011;8838;50.144;8.176;2023-07-13T03:21:28;2.15;;;1.27;;
17441;SDS011;8838;50.144;8.176;2023-07-13T03:23:55;2.53;;;1.30;;
17441;SDS011;8838;50.144;8.176;2023-07-13T03:26:22;5.47;;;1.50;;
17441;SDS011;8838;50.144;8.176;2023-07-13T03:28:49;3.75;;;1.70;;
17441;SDS011;8838;50.144;8.176;2023-07-13T03:31:17;3.00;;;1.50;;
17441;SDS011;8838;50.144;8.176;2023-07-13T03:33:46;4.90;;;1.65;;
17441;SDS011;8838;50.144;8.176;2023-07-13T03:36:14;3.90;;;1.63;;
17441;SDS011;8838;50.144;8.176;2023-07-13T03:38:46;3.58;;;1.33;;
17441;SDS011;8838;50.144;8.176;2023-07-13T03:41:13;4.80;;;1.70;;
17441;SDS011;8838;50.144;8.176;2023-07-13T03:43:40;3.58;;;1.65;;
17441;SDS011;8838;50.144;8.176;2023-07-13T03:46:07;3.70;;;1.40;;
17441;SDS011;8838;50.144;8.176;2023-07-13T03:48:34;4.35;;;1.60;;
17441;SDS011;8838;50.144;8.176;2023-07-13T03:51:01;2.92;;;1.40;;
17441;SDS011;8838;50.144;8.176;2023-07-13T03:53:28;7.35;;;1.70;;
17441;SDS011;8838;50.144;8.176;2023-07-13T03:55:56;4.50;;;1.40;;
17441;SDS011;8838;50.144;8.176;2023-07-13T03:58:24;3.33;;;1.55;;
17441;SDS011;8838;50.144;8.176;2023-07-13T04:00:56;4.53;;;1.50;;
17441;SDS011;8838;50.144;8.176;2023-07-13T04:03:24;5.40;;;1.50;;
17441;SDS011;8838;50.144;8.176;2023-07-13T04:05:53;4.47;;;1.63;;
17441;SDS011;8838;50.144;8.176;2023-07-13T04:08:24;4.30;;;1.40;;
17441;SDS011;8838;50.144;8.176;2023-07-13T04:10:52;2.80;;;1.27;;
17441;SDS011;8838;50.144;8.176;2023-07-13T04:13:20;3.03;;;1.35;;
17441;SDS011;8838;50.144;8.176;2023-07-13T04:15:47;2.90;;;1.20;;
17441;SDS011;8838;50.144;8.176;2023-07-13T04:18:17;5.45;;;1.50;;
17441;SDS011;8838;50.144;8.176;2023-07-13T04:20:45;3.95;;;1.50;;
17441;SDS011;8838;50.144;8.176;2023-07-13T04:23:12;4.88;;;1.50;;
17441;SDS011;8838;50.144;8.176;2023-07-13T04:25:38;4.35;;;1.15;;
17441;SDS011;8838;50.144;8.176;2023-07-13T04:28:08;7.57;;;1.30;;
17441;SDS011;8838;50.144;8.176;2023-07-13T04:30:36;2.75;;;1.05;;
17441;SDS011;8838;50.144;8.176;2023-07-13T04:33:03;4.53;;;1.50;;
17441;SDS011;8838;50.144;8.176;2023-07-13T04:35:30;2.53;;;1.30;;
17441;SDS011;8838;50.144;8.176;2023-07-13T04:37:57;3.72;;;1.63;;
17441;SDS011;8838;50.144;8.176;2023-07-13T04:40:24;7.03;;;1.50;;
17441;SDS011;8838;50.144;8.176;2023-07-13T04:42:51;3.42;;;1.60;;
17441;SDS011;8838;50.144;8.176;2023-07-13T04:45:18;3.50;;;1.60;;
17441;SDS011;8838;50.144;8.176;2023-07-13T04:47:46;2.45;;;1.73;;
17441;SDS011;8838;50.144;8.176;2023-07-13T04:50:13;3.38;;;1.90;;
17441;SDS011;8838;50.144;8.176;2023-07-13T04:52:44;4.47;;;1.67;;
17441;SDS011;8838;50.144;8.176;2023-07-13T04:55:11;4.22;;;1.83;;
17441;SDS011;8838;50.144;8.176;2023-07-13T04:57:38;5.20;;;1.65;;
17441;SDS011;8838;50.144;8.176;2023-07-13T05:00:05;3.00;;;1.50;;
17441;SDS011;8838;50.144;8.176;2023-07-13T05:02:34;3.10;;;1.67;;
17441;SDS011;8838;50.144;8.176;2023-07-13T05:05:02;2.47;;;1.00;;
17441;SDS011;8838;50.144;8.176;2023-07-13T05:07:29;2.67;;;1.35;;
17441;SDS011;8838;50.144;8.176;2023-07-13T05:09:58;3.40;;;1.30;;
17441;SDS011;8838;50.144;8.176;2023-07-13T05:12:25;2.28;;;1.00;;
17441;SDS011;8838;50.144;8.176;2023-07-13T05:14:52;6.80;;;1.50;;
17441;SDS011;8838;50.144;8.176;2023-07-13T05:17:19;2.83;;;1.40;;
17441;SDS011;8838;50.144;8.176;2023-07-13T05:19:46;1.63;;;1.40;;
17441;SDS011;8838;50.144;8.176;2023-07-13T05:22:14;4.43;;;1.40;;
17441;SDS011;8838;50.144;8.176;2023-07-13T05:24:41;4.53;;;1.25;;
17441;SDS011;8838;50.144;8.176;2023-07-13T05:27:08;3.65;;;1.30;;
17441;SDS011;8838;50.144;8.176;2023-07-13T05:29:34;3.97;;;1.38;;
17441;SDS011;8838;50.144;8.176;2023-07-13T05:32:01;4.47;;;1.23;;
17441;SDS011;8838;50.144;8.176;2023-07-13T05:34:28;3.53;;;1.30;;
17441;SDS011;8838;50.144;8.176;2023-07-13T05:36:55;3.42;;;1.30;;
17441;SDS011;8838;50.144;8.176;2023-07-13T05:39:23;6.00;;;1.38;;
17441;SDS011;8838;50.144;8.176;2023-07-13T05:41:51;2.72;;;1.20;;
17441;SDS011;8838;50.144;8.176;2023-07-13T05:44:18;3.90;;;1.10;;
17441;SDS011;8838;50.144;8.176;2023-07-13T05:46:46;3.28;;;1.10;;
17441;SDS011;8838;50.144;8.176;2023-07-13T05:49:14;2.85;;;1.30;;
17441;SDS011;8838;50.144;8.176;2023-07-13T05:51:40;2.58;;;0.98;;
17441;SDS011;8838;50.144;8.176;2023-07-13T05:54:07;5.05;;;1.20;;
17441;SDS011;8838;50.144;8.176;2023-07-13T05:56:36;2.65;;;1.00;;
17441;SDS011;8838;50.144;8.176;2023-07-13T05:59:03;3.53;;;0.95;;
17441;SDS011;8838;50.144;8.176;2023-07-13T06:01:30;4.13;;;0.98;;
17441;SDS011;8838;50.144;8.176;2023-07-13T06:03:57;1.77;;;0.93;;
17441;SDS011;8838;50.144;8.176;2023-07-13T06:06:24;5.70;;;1.00;;
17441;SDS011;8838;50.144;8.176;2023-07-13T06:08:50;2.60;;;0.90;;
17441;SDS011;8838;50.144;8.176;2023-07-13T06:11:18;5.25;;;1.13;;
17441;SDS011;8838;50.144;8.176;2023-07-13T06:13:48;2.72;;;1.10;;
17441;SDS011;8838;50.144;8.176;2023-07-13T06:16:16;2.25;;;0.70;;
17441;SDS011;8838;50.144;8.176;2023-07-13T06:18:43;3.47;;;0.80;;
17441;SDS011;8838;50.144;8.176;2023-07-13T06:21:11;5.70;;;1.13;;
17441;SDS011;8838;50.144;8.176;2023-07-13T06:23:38;2.58;;;0.80;;
17441;SDS011;8838;50.144;8.176;2023-07-13T06:26:05;4.53;;;1.20;;
17441;SDS011;8838;50.144;8.176;2023-07-13T06:28:33;3.22;;;0.82;;
17441;SDS011;8838;50.144;8.176;2023-07-13T06:31:04;1.92;;;0.80;;
17441;SDS011;8838;50.144;8.176;2023-07-13T06:33:31;1.55;;;0.70;;
17441;SDS011;8838;50.144;8.176;2023-07-13T06:35:58;3.88;;;0.95;;
17441;SDS011;8838;50.144;8.176;2023-07-13T06:38:25;2.05;;;0.90;;
17441;SDS011;8838;50.144;8.176;2023-07-13T06:40:52;2.78;;;0.70;;
17441;SDS011;8838;50.144;8.176;2023-07-13T06:43:19;3.10;;;0.90;;
17441;SDS011;8838;50.144;8.176;2023-07-13T06:45:46;3.05;;;0.90;;
17441;SDS011;8838;50.144;8.176;2023-07-13T06:48:16;3.90;;;0.90;;
17441;SDS011;8838;50.144;8.176;2023-07-13T06:50:44;2.90;;;0.80;;
17441;SDS011;8838;50.144;8.176;2023-07-13T06:53:12;2.33;;;0.88;;
17441;SDS011;8838;50.144;8.176;2023-07-13T06:55:39;3.85;;;1.20;;
17441;SDS011;8838;50.144;8.176;2023-07-13T06:58:06;1.75;;;0.77;;
17441;SDS011;8838;50.144;8.176;2023-07-13T07:00:33;4.80;;;1.02;;
17441;SDS011;8838;50.144;8.176;2023-07-13T07:03:00;2.03;;;1.00;;
17441;SDS011;8838;50.144;8.176;2023-07-13T07:05:28;2.60;;;1.00;;
17441;SDS011;8838;50.144;8.176;2023-07-13T07:07:57;6.68;;;1.00;;
17441;SDS011;8838;50.144;8.176;2023-07-13T07:10:25;3.42;;;0.80;;
17441;SDS011;8838;50.144;8.176;2023-07-13T07:12:52;6.90;;;1.08;;
17441;SDS011;8838;50.144;8.176;2023-07-13T07:15:18;5.53;;;0.95;;
17441;SDS011;8838;50.144;8.176;2023-07-13T07:17:48;1.92;;;0.80;;
17441;SDS011;8838;50.144;8.176;2023-07-13T07:20:15;4.25;;;1.10;;
17441;SDS011;8838;50.144;8.176;2023-07-13T07:22:43;4.15;;;1.08;;
17441;SDS011;8838;50.144;8.176;2023-07-13T07:25:11;4.55;;;1.00;;
17441;SDS011;8838;50.144;8.176;2023-07-13T07:27:38;4.20;;;1.08;;
17441;SDS011;8838;50.144;8.176;2023-07-13T07:30:06;1.25;;;0.90;;
17441;SDS011;8838;50.144;8.176;2023-07-13T07:32:33;3.60;;;0.90;;
17441;SDS011;8838;50.144;8.176;2023-07-13T07:35:00;1.60;;;0.88;;
17441;SDS011;8838;50.144;8.176;2023-07-13T07:37:27;2.97;;;1.25;;
17441;SDS011;8838;50.144;8.176;2023-07-13T07:39:55;4.03;;;1.15;;
17441;SDS011;8838;50.144;8.176;2023-07-13T07:42:22;1.73;;;0.93;;
17441;SDS011;8838;50.144;8.176;2023-07-13T07:44:49;1.98;;;0.80;;
17441;SDS011;8838;50.144;8.176;2023-07-13T07:47:16;2.38;;;0.85;;
17441;SDS011;8838;50.144;8.176;2023-07-13T07:49:43;3.00;;;1.05;;
17441;SDS011;8838;50.144;8.176;2023-07-13T07:52:09;1.88;;;0.90;;
17441;SDS011;8838;50.144;8.176;2023-07-13T07:54:36;3.60;;;0.90;;
17441;SDS011;8838;50.144;8.176;2023-07-13T07:57:05;3.17;;;0.98;;
17441;SDS011;8838;50.144;8.176;2023-07-13T07:59:33;3.80;;;0.95;;
17441;SDS011;8838;50.144;8.176;2023-07-13T08:02:00;1.52;;;0.75;;
17441;SDS011;8838;50.144;8.176;2023-07-13T08:04:27;2.13;;;0.70;;
17441;SDS011;8838;50.144;8.176;2023-07-13T08:06:54;2.00;;;0.88;;
17441;SDS011;8838;50.144;8.176;2023-07-13T08:09:22;1.10;;;0.70;;
17441;SDS011;8838;50.144;8.176;2023-07-13T08:11:49;3.20;;;0.90;;
17441;SDS011;8838;50.144;8.176;2023-07-13T08:14:18;4.05;;;0.75;;
17441;SDS011;8838;50.144;8.176;2023-07-13T08:16:45;2.17;;;0.90;;
17441;SDS011;8838;50.144;8.176;2023-07-13T08:19:12;1.77;;;0.77;;
17441;SDS011;8838;50.144;8.176;2023-07-13T08:21:39;1.42;;;0.70;;
17441;SDS011;8838;50.144;8.176;2023-07-13T08:24:07;1.73;;;0.70;;
17441;SDS011;8838;50.144;8.176;2023-07-13T08:26:34;1.80;;;0.70;;
17441;SDS011;8838;50.144;8.176;2023-07-13T08:29:01;1.45;;;0.77;;
17441;SDS011;8838;50.144;8.176;2023-07-13T08:31:30;2.10;;;0.77;;
17441;SDS011;8838;50.144;8.176;2023-07-13T08:33:57;2.40;;;0.70;;
17441;SDS011;8838;50.144;8.176;2023-07-13T08:36:24;1.63;;;0.93;;
17441;SDS011;8838;50.144;8.176;2023-07-13T08:38:53;3.92;;;0.80;;
17441;SDS011;8838;50.144;8.176;2023-07-13T08:41:19;2.22;;;0.70;;
17441;SDS011;8838;50.144;8.176;2023-07-13T08:43:49;2.65;;;0.75;;
17441;SDS011;8838;50.144;8.176;2023-07-13T08:46:20;1.65;;;0.70;;
17441;SDS011;8838;50.144;8.176;2023-07-13T08:48:56;1.88;;;0.82;;
17441;SDS011;8838;50.144;8.176;2023-07-13T08:51:35;2.50;;;0.63;;
17441;SDS011;8838;50.144;8.176;2023-07-13T08:54:11;1.90;;;0.50;;
17441;SDS011;8838;50.144;8.176;2023-07-13T08:56:44;1.48;;;0.70;;
17441;SDS011;8838;50.144;8.176;2023-07-13T08:59:14;1.23;;;0.70;;
17441;SDS011;8838;50.144;8.176;2023-07-13T09:01:53;0.80;;;0.80;;
17441;SDS011;8838;50.144;8.176;2023-07-13T09:04:30;2.53;;;0.60;;
17441;SDS011;8838;50.144;8.176;2023-07-13T09:07:04;2.20;;;0.90;;
17441;SDS011;8838;50.144;8.176;2023-07-13T09:09:41;1.15;;;0.65;;
17441;SDS011;8838;50.144;8.176;2023-07-13T09:12:15;1.42;;;0.50;;
17441;SDS011;8838;50.144;8.176;2023-07-13T09:14:50;1.27;;;0.82;;
17441;SDS011;8838;50.144;8.176;2023-07-13T09:17:21;1.73;;;0.60;;
17441;SDS011;8838;50.144;8.176;2023-07-13T09:19:56;1.38;;;0.80;;
17441;SDS011;8838;50.144;8.176;2023-07-13T09:22:30;2.05;;;0.70;;
17441;SDS011;8838;50.144;8.176;2023-07-13T09:25:02;1.92;;;1.00;;
17441;SDS011;8838;50.144;8.176;2023-07-13T09:27:33;3.10;;;1.00;;
17441;SDS011;8838;50.144;8.176;2023-07-13T09:30:11;3.42;;;0.90;;
17441;SDS011;8838;50.144;8.176;2023-07-13T09:32:51;1.65;;;1.00;;
17441;SDS011;8838;50.144;8.176;2023-07-13T09:35:21;1.42;;;0.90;;
17441;SDS011;8838;50.144;8.176;2023-07-13T09:37:55;1.92;;;0.98;;
17441;SDS011;8838;50.144;8.176;2023-07-13T09:40:26;3.80;;;0.80;;
17441;SDS011;8838;50.144;8.176;2023-07-13T09:43:01;3.05;;;1.13;;
17441;SDS011;8838;50.144;8.176;2023-07-13T09:45:30;1.45;;;0.80;;
17441;SDS011;8838;50.144;8.176;2023-07-13T09:48:00;1.52;;;0.80;;
17441;SDS011;8838;50.144;8.176;2023-07-13T09:50:32;3.50;;;1.20;;
17441;SDS011;8838;50.144;8.176;2023-07-13T09:53:00;3.13;;;1.05;;
17441;SDS011;8838;50.144;8.176;2023-07-13T09:55:29;2.28;;;0.90;;
17441;SDS011;8838;50.144;8.176;2023-07-13T09:57:57;2.53;;;0.90;;
17441;SDS011;8838;50.144;8.176;2023-07-13T10:00:30;2.70;;;1.08;;
17441;SDS011;8838;50.144;8.176;2023-07-13T10:03:01;2.35;;;0.80;;
17441;SDS011;8838;50.144;8.176;2023-07-13T10:05:38;2.95;;;0.95;;
17441;SDS011;8838;50.144;8.176;2023-07-13T10:08:09;2.10;;;0.98;;
17441;SDS011;8838;50.144;8.176;2023-07-13T10:10:43;1.80;;;1.00;;
17441;SDS011;8838;50.144;8.176;2023-07-13T10:13:21;2.92;;;1.10;;
17441;SDS011;8838;50.144;8.176;2023-07-13T10:15:52;4.80;;;1.15;;
17441;SDS011;8838;50.144;8.176;2023-07-13T10:18:20;3.75;;;1.10;;
17441;SDS011;8838;50.144;8.176;2023-07-13T10:20:49;1.73;;;0.98;;
17441;SDS011;8838;50.144;8.176;2023-07-13T10:23:20;1.70;;;0.95;;
17441;SDS011;8838;50.144;8.176;2023-07-13T10:25:52;2.28;;;1.05;;
17441;SDS011;8838;50.144;8.176;2023-07-13T10:28:23;1.67;;;1.13;;
17441;SDS011;8838;50.144;8.176;2023-07-13T10:30:55;3.30;;;0.98;;
17441;SDS011;8838;50.144;8.176;2023-07-13T10:33:25;2.83;;;1.05;;
17441;SDS011;8838;50.144;8.176;2023-07-13T10:35:59;1.58;;;1.00;;
17441;SDS011;8838;50.144;8.176;2023-07-13T10:38:32;2.17;;;0.82;;
17441;SDS011;8838;50.144;8.176;2023-07-13T10:41:01;1.40;;;0.82;;
17441;SDS011;8838;50.144;8.176;2023-07-13T10:43:31;1.95;;;1.05;;
17441;SDS011;8838;50.144;8.176;2023-07-13T10:46:03;1.58;;;0.85;;
17441;SDS011;8838;50.144;8.176;2023-07-13T10:48:32;1.13;;;1.02;;
17441;SDS011;8838;50.144;8.176;2023-07-13T10:51:03;4.15;;;1.08;;
17441;SDS011;8838;50.144;8.176;2023-07-13T10:53:33;2.85;;;0.90;;
17441;SDS011;8838;50.144;8.176;2023-07-13T10:56:02;3.05;;;1.05;;
17441;SDS011;8838;50.144;8.176;2023-07-13T10:58:36;2.55;;;0.93;;
17441;SDS011;8838;50.144;8.176;2023-07-13T11:01:07;2.28;;;1.10;;
17441;SDS011;8838;50.144;8.176;2023-07-13T11:03:36;1.80;;;1.00;;
17441;SDS011;8838;50.144;8.176;2023-07-13T11:06:17;3.85;;;1.02;;
17441;SDS011;8838;50.144;8.176;2023-07-13T11:08:56;2.47;;;0.90;;
17441;SDS011;8838;50.144;8.176;2023-07-13T11:11:37;1.33;;;0.85;;
17441;SDS011;8838;50.144;8.176;2023-07-13T11:14:04;2.65;;;1.17;;
17441;SDS011;8838;50.144;8.176;2023-07-13T11:16:52;1.67;;;1.00;;
17441;SDS011;8838;50.144;8.176;2023-07-13T11:19:37;1.92;;;1.20;;
17441;SDS011;8838;50.144;8.176;2023-07-13T11:22:14;2.10;;;1.00;;
17441;SDS011;8838;50.144;8.176;2023-07-13T11:24:50;2.35;;;1.00;;
17441;SDS011;8838;50.144;8.176;2023-07-13T11:27:33;3.22;;;1.00;;
17441;SDS011;8838;50.144;8.176;2023-07-13T11:30:17;5.28;;;1.20;;
17441;SDS011;8838;50.144;8.176;2023-07-13T11:33:02;2.25;;;0.98;;
17441;SDS011;8838;50.144;8.176;2023-07-13T11:35:38;3.50;;;1.10;;
17441;SDS011;8838;50.144;8.176;2023-07-13T11:38:13;1.52;;;1.10;;
17441;SDS011;8838;50.144;8.176;2023-07-13T11:40:44;1.83;;;1.17;;
17441;SDS011;8838;50.144;8.176;2023-07-13T11:43:16;2.83;;;0.98;;
17441;SDS011;8838;50.144;8.176;2023-07-13T11:45:43;3.50;;;0.90;;
17441;SDS011;8838;50.144;8.176;2023-07-13T11:48:21;1.38;;;0.98;;
17441;SDS011;8838;50.144;8.176;2023-07-13T11:50:51;1.90;;;0.98;;
17441;SDS011;8838;50.144;8.176;2023-07-13T11:53:22;1.88;;;0.90;;
17441;SDS011;8838;50.144;8.176;2023-07-13T11:55:52;2.80;;;1.00;;
17441;SDS011;8838;50.144;8.176;2023-07-13T11:58:19;2.28;;;1.00;;
17441;SDS011;8838;50.144;8.176;2023-07-13T12:00:50;1.83;;;0.95;;
17441;SDS011;8838;50.144;8.176;2023-07-13T12:03:21;2.45;;;1.10;;
17441;SDS011;8838;50.144;8.176;2023-07-13T12:05:58;1.38;;;1.00;;
17441;SDS011;8838;50.144;8.176;2023-07-13T12:08:28;1.77;;;0.85;;
17441;SDS011;8838;50.144;8.176;2023-07-13T12:11:03;4.43;;;1.05;;
17441;SDS011;8838;50.144;8.176;2023-07-13T12:13:35;1.38;;;0.90;;
17441;SDS011;8838;50.144;8.176;2023-07-13T12:16:08;2.90;;;1.20;;
17441;SDS011;8838;50.144;8.176;2023-07-13T12:18:43;4.13;;;0.90;;
17441;SDS011;8838;50.144;8.176;2023-07-13T12:21:14;4.43;;;1.00;;
17441;SDS011;8838;50.144;8.176;2023-07-13T12:23:47;4.22;;;1.00;;
17441;SDS011;8838;50.144;8.176;2023-07-13T12:26:15;2.40;;;1.08;;
17441;SDS011;8838;50.144;8.176;2023-07-13T12:28:46;2.72;;;1.10;;
17441;SDS011;8838;50.144;8.176;2023-07-13T12:34:03;1.90;;;1.02;;
17441;SDS011;8838;50.144;8.176;2023-07-13T12:36:34;2.42;;;0.90;;
17441;SDS011;8838;50.144;8.176;2023-07-13T12:39:11;3.15;;;1.00;;
17441;SDS011;8838;50.144;8.176;2023-07-13T12:41:40;2.97;;;0.90;;
17441;SDS011;8838;50.144;8.176;2023-07-13T12:44:10;3.20;;;1.00;;
17441;SDS011;8838;50.144;8.176;2023-07-13T12:46:51;2.72;;;1.20;;
17441;SDS011;8838;50.144;8.176;2023-07-13T12:49:22;3.92;;;1.20;;
17441;SDS011;8838;50.144;8.176;2023-07-13T12:51:55;3.20;;;1.10;;
17441;SDS011;8838;50.144;8.176;2023-07-13T12:54:25;4.63;;;1.25;;
17441;SDS011;8838;50.144;8.176;2023-07-13T12:56:53;1.50;;;0.90;;
17441;SDS011;8838;50.144;8.176;2023-07-13T12:59:23;4.28;;;1.40;;
17441;SDS011;8838;50.144;8.176;2023-07-13T13:01:53;2.67;;;1.10;;
17441;SDS011;8838;50.144;8.176;2023-07-13T13:04:20;2.35;;;1.15;;
17441;SDS011;8838;50.144;8.176;2023-07-13T13:06:48;2.65;;;1.20;;
17441;SDS011;8838;50.144;8.176;2023-07-13T13:09:30;3.08;;;1.20;;
17441;SDS011;8838;50.144;8.176;2023-07-13T13:11:57;1.70;;;1.00;;
17441;SDS011;8838;50.144;8.176;2023-07-13T13:14:24;4.25;;;1.00;;
17441;SDS011;8838;50.144;8.176;2023-07-13T13:16:52;4.40;;;1.10;;
17441;SDS011;8838;50.144;8.176;2023-07-13T13:19:23;5.05;;;1.30;;
17441;SDS011;8838;50.144;8.176;2023-07-13T13:21:52;3.88;;;1.17;;
17441;SDS011;8838;50.144;8.176;2023-07-13T13:24:24;2.88;;;1.17;;
17441;SDS011;8838;50.144;8.176;2023-07-13T13:26:56;4.45;;;1.15;;
17441;SDS011;8838;50.144;8.176;2023-07-13T13:29:23;3.80;;;1.10;;
17441;SDS011;8838;50.144;8.176;2023-07-13T13:31:51;5.63;;;1.27;;
17441;SDS011;8838;50.144;8.176;2023-07-13T13:34:20;1.95;;;1.00;;
17441;SDS011;8838;50.144;8.176;2023-07-13T13:36:49;2.22;;;0.98;;
17441;SDS011;8838;50.144;8.176;2023-07-13T13:39:22;4.38;;;1.23;;
17441;SDS011;8838;50.144;8.176;2023-07-13T13:41:55;5.05;;;0.88;;
17441;SDS011;8838;50.144;8.176;2023-07-13T13:44:24;2.65;;;1.15;;
17441;SDS011;8838;50.144;8.176;2023-07-13T13:46:52;2.45;;;1.08;;
17441;SDS011;8838;50.144;8.176;2023-07-13T13:49:22;2.10;;;1.10;;
17441;SDS011;8838;50.144;8.176;2023-07-13T13:51:50;2.53;;;0.90;;
17441;SDS011;8838;50.144;8.176;2023-07-13T13:54:18;4.05;;;1.00;;
17441;SDS011;8838;50.144;8.176;2023-07-13T13:56:47;3.13;;;1.00;;
17441;SDS011;8838;50.144;8.176;2023-07-13T13:59:17;6.30;;;1.02;;
17441;SDS011;8838;50.144;8.176;2023-07-13T14:01:46;1.95;;;1.02;;
17441;SDS011;8838;50.144;8.176;2023-07-13T14:04:15;4.53;;;1.08;;
17441;SDS011;8838;50.144;8.176;2023-07-13T14:06:44;3.08;;;1.00;;
17441;SDS011;8838;50.144;8.176;2023-07-13T14:09:12;3.78;;;1.10;;
17441;SDS011;8838;50.144;8.176;2023-07-13T14:11:41;6.15;;;1.10;;
17441;SDS011;8838;50.144;8.176;2023-07-13T14:14:09;3.25;;;1.17;;
17441;SDS011;8838;50.144;8.176;2023-07-13T14:16:42;1.63;;;0.90;;
17441;SDS011;8838;50.144;8.176;2023-07-13T14:19:10;4.43;;;1.10;;
17441;SDS011;8838;50.144;8.176;2023-07-13T14:21:39;2.03;;;0.90;;
17441;SDS011;8838;50.144;8.176;2023-07-13T14:24:06;1.60;;;1.00;;
17441;SDS011;8838;50.144;8.176;2023-07-13T14:26:35;1.95;;;1.00;;
17441;SDS011;8838;50.144;8.176;2023-07-13T14:29:04;2.70;;;0.90;;
17441;SDS011;8838;50.144;8.176;2023-07-13T14:31:41;6.22;;;1.20;;
17441;SDS011;8838;50.144;8.176;2023-07-13T14:34:10;3.83;;;1.13;;
17441;SDS011;8838;50.144;8.176;2023-07-13T14:36:40;1.00;;;0.80;;
17441;SDS011;8838;50.144;8.176;2023-07-13T14:39:11;2.63;;;1.00;;
17441;SDS011;8838;50.144;8.176;2023-07-13T14:41:40;4.80;;;1.13;;
17441;SDS011;8838;50.144;8.176;2023-07-13T14:44:11;2.33;;;1.10;;
17441;SDS011;8838;50.144;8.176;2023-07-13T14:46:38;3.03;;;1.10;;
17441;SDS011;8838;50.144;8.176;2023-07-13T14:49:21;2.88;;;1.10;;
17441;SDS011;8838;50.144;8.176;2023-07-13T14:51:54;3.90;;;1.10;;
17441;SDS011;8838;50.144;8.176;2023-07-13T14:54:23;2.67;;;1.08;;
17441;SDS011;8838;50.144;8.176;2023-07-13T14:56:50;1.75;;;0.98;;
17441;SDS011;8838;50.144;8.176;2023-07-13T14:59:17;3.20;;;1.00;;
17441;SDS011;8838;50.144;8.176;2023-07-13T15:01:44;1.45;;;0.93;;
17441;SDS011;8838;50.144;8.176;2023-07-13T15:04:13;2.78;;;1.10;;
17441;SDS011;8838;50.144;8.176;2023-07-13T15:06:54;4.10;;;0.82;;
17441;SDS011;8838;50.144;8.176;2023-07-13T15:09:22;2.55;;;1.20;;
17441;SDS011;8838;50.144;8.176;2023-07-13T15:11:51;2.95;;;1.20;;
17441;SDS011;8838;50.144;8.176;2023-07-13T15:14:18;2.33;;;1.20;;
17441;SDS011;8838;50.144;8.176;2023-07-13T15:16:46;2.55;;;0.95;;
17441;SDS011;8838;50.144;8.176;2023-07-13T15:19:17;1.63;;;1.20;;